Time,TemperatureF,DewpointF,PressureIn,WindDirection,WindDirectionDegrees,WindSpeedMPH,WindSpeedGustMPH,Humidity,HourlyPrecipIn,Conditions,Clouds,dailyrainin,SoftwareType,DateUTC
2013-04-10 00:00:00,47.3,38.4,29.74,NE,45,0.0,7.3,71,0.00,,,0.00,VWS V14.00,2013-04-10 04:00:00,
2013-04-10 00:01:00,47.3,38.4,29.76,WNW,292,0.0,1.0,71,0.00,,,0.00,VWS V14.00,2013-04-10 04:01:00,
2013-04-10 00:02:00,47.3,38.4,29.74,NE,45,0.0,1.0,71,0.00,,,0.00,VWS V14.00,2013-04-10 04:02:00,
2013-04-10 00:03:00,47.3,38.4,29.74,NNE,22,0.0,1.0,71,0.00,,,0.00,VWS V14.00,2013-04-10 04:03:00,
2013-04-10 00:04:00,47.3,38.4,29.74,NNE,22,6.3,7.3,71,0.00,,,0.00,VWS V14.00,2013-04-10 04:04:00,
2013-04-10 00:05:00,47.1,38.2,29.74,ENE,68,7.4,8.4,71,0.00,,,0.00,VWS V14.00,2013-04-10 04:05:00,
2013-04-10 00:06:00,47.3,38.4,29.74,NE,45,0.0,7.3,71,0.00,,,0.00,VWS V14.00,2013-04-10 04:06:00,
2013-04-10 00:07:00,47.1,38.2,29.74,North,0,5.1,6.1,71,0.00,,,0.00,VWS V14.00,2013-04-10 04:07:00,
2013-04-10 00:08:00,47.1,38.2,29.74,ENE,68,5.5,6.5,71,0.00,,,0.00,VWS V14.00,2013-04-10 04:08:00,
2013-04-10 00:09:00,47.1,38.2,29.74,NNE,22,5.5,6.9,71,0.00,,,0.00,VWS V14.00,2013-04-10 04:09:00,
2013-04-10 00:10:00,46.9,38.0,29.74,SSE,158,0.0,1.0,71,0.00,,,0.00,VWS V14.00,2013-04-10 04:10:00,
2013-04-10 00:11:00,47.1,38.2,29.74,WNW,292,0.0,8.4,71,0.00,,,0.00,VWS V14.00,2013-04-10 04:11:00,
2013-04-10 00:12:00,47.1,38.2,29.74,WNW,292,0.0,1.0,71,0.00,,,0.00,VWS V14.00,2013-04-10 04:12:00,
2013-04-10 00:13:00,46.9,38.0,29.74,North,0,0.0,6.5,71,0.00,,,0.00,VWS V14.00,2013-04-10 04:13:00,
2013-04-10 00:14:00,46.9,38.0,29.74,NE,45,0.0,1.0,71,0.00,,,0.00,VWS V14.00,2013-04-10 04:14:00,
2013-04-10 00:15:00,46.9,38.8,29.74,NNW,338,0.0,1.0,73,0.00,,,0.00,VWS V14.00,2013-04-10 04:15:00,
2013-04-10 00:16:00,46.9,38.0,29.74,SSE,158,0.0,1.0,71,0.00,,,0.00,VWS V14.00,2013-04-10 04:16:00,
2013-04-10 00:17:00,46.9,38.0,29.74,WNW,292,4.3,5.3,71,0.00,,,0.00,VWS V14.00,2013-04-10 04:17:00,
2013-04-10 00:18:00,46.9,38.4,29.74,West,270,0.0,5.3,72,0.00,,,0.00,VWS V14.00,2013-04-10 04:18:00,
2013-04-10 00:19:00,46.9,38.4,29.74,WNW,292,0.0,1.0,72,0.00,,,0.00,VWS V14.00,2013-04-10 04:19:00,
2013-04-10 00:20:00,46.9,38.4,29.74,WNW,292,0.0,1.0,72,0.00,,,0.00,VWS V14.00,2013-04-10 04:20:00,
2013-04-10 00:21:00,46.9,38.8,29.74,NNW,338,0.0,1.0,73,0.00,,,0.00,VWS V14.00,2013-04-10 04:21:00,
2013-04-10 00:22:00,46.9,38.8,29.74,WSW,248,0.0,1.0,73,0.00,,,0.00,VWS V14.00,2013-04-10 04:22:00,
2013-04-10 00:23:00,46.9,38.8,29.74,SE,135,0.0,1.0,73,0.00,,,0.00,VWS V14.00,2013-04-10 04:23:00,
2013-04-10 00:24:00,46.9,38.8,29.74,NNE,22,0.0,1.0,73,0.00,,,0.00,VWS V14.00,2013-04-10 04:24:00,
2013-04-10 00:25:00,46.9,38.8,29.74,NE,45,2.3,3.3,73,0.00,,,0.00,VWS V14.00,2013-04-10 04:25:00,
2013-04-10 00:26:00,46.9,38.4,29.74,WNW,292,0.0,1.0,72,0.00,,,0.00,VWS V14.00,2013-04-10 04:26:00,
2013-04-10 00:27:00,46.9,38.4,29.74,WSW,248,4.3,5.3,72,0.00,,,0.00,VWS V14.00,2013-04-10 04:27:00,
2013-04-10 00:28:00,46.9,38.4,29.74,WSW,248,4.3,5.3,72,0.00,,,0.00,VWS V14.00,2013-04-10 04:28:00,
2013-04-10 00:29:00,46.9,39.1,29.74,NNE,22,0.0,5.3,74,0.00,,,0.00,VWS V14.00,2013-04-10 04:29:00,
2013-04-10 00:30:00,46.8,38.2,29.71,ENE,68,5.9,6.9,72,0.00,,,0.00,VWS V14.00,2013-04-10 04:30:00,
2013-04-10 00:31:00,46.9,38.8,29.74,NE,45,2.3,3.3,73,0.00,,,0.00,VWS V14.00,2013-04-10 04:31:00,
2013-04-10 00:32:00,46.8,38.2,29.71,NE,45,4.7,5.7,72,0.00,,,0.00,VWS V14.00,2013-04-10 04:32:00,
2013-04-10 00:33:00,46.8,38.2,29.71,North,0,0.0,5.7,72,0.00,,,0.00,VWS V14.00,2013-04-10 04:33:00,
2013-04-10 00:34:00,46.8,38.2,29.71,SSE,158,0.0,1.0,72,0.00,,,0.00,VWS V14.00,2013-04-10 04:34:00,
2013-04-10 00:35:00,46.8,38.6,29.71,West,270,2.7,3.7,73,0.00,,,0.00,VWS V14.00,2013-04-10 04:35:00,
2013-04-10 00:36:00,46.8,38.2,29.71,North,0,2.0,6.9,72,0.00,,,0.00,VWS V14.00,2013-04-10 04:36:00,
2013-04-10 00:37:00,46.8,38.2,29.71,North,0,2.0,3.0,72,0.00,,,0.00,VWS V14.00,2013-04-10 04:37:00,
2013-04-10 00:38:00,46.8,38.2,29.71,SE,135,0.0,3.0,72,0.00,,,0.00,VWS V14.00,2013-04-10 04:38:00,
2013-04-10 00:40:00,46.6,38.0,29.71,NW,315,1.6,6.9,72,0.00,,,0.00,VWS V14.00,2013-04-10 04:40:00,
2013-04-10 00:41:00,46.8,38.6,29.71,West,270,2.7,3.7,73,0.00,,,0.00,VWS V14.00,2013-04-10 04:41:00,
2013-04-10 00:42:00,46.8,38.6,29.71,West,270,2.7,3.7,73,0.00,,,0.00,VWS V14.00,2013-04-10 04:42:00,
2013-04-10 00:43:00,46.8,38.6,29.71,ESE,112,0.0,3.7,73,0.00,,,0.00,VWS V14.00,2013-04-10 04:43:00,
2013-04-10 00:44:00,46.8,38.6,29.71,ESE,112,0.0,1.0,73,0.00,,,0.00,VWS V14.00,2013-04-10 04:44:00,
2013-04-10 00:45:00,46.6,39.4,29.71,WSW,248,2.0,3.0,76,0.00,,,0.00,VWS V14.00,2013-04-10 04:45:00,
2013-04-10 00:46:00,46.6,38.0,29.71,NW,315,1.6,6.9,72,0.00,,,0.00,VWS V14.00,2013-04-10 04:46:00,
2013-04-10 00:47:00,46.6,38.0,29.71,West,270,0.0,2.6,72,0.00,,,0.00,VWS V14.00,2013-04-10 04:47:00,
2013-04-10 00:48:00,46.6,38.4,29.71,SW,225,5.1,6.1,73,0.00,,,0.00,VWS V14.00,2013-04-10 04:48:00,
2013-04-10 00:50:00,46.6,39.4,29.71,SSE,158,0.0,1.0,76,0.00,,,0.00,VWS V14.00,2013-04-10 04:50:00,
2013-04-10 00:51:00,46.6,39.1,29.71,WSW,248,2.0,3.0,75,0.00,,,0.00,VWS V14.00,2013-04-10 04:51:00,
2013-04-10 00:52:00,46.6,39.4,29.71,SSW,202,10.2,11.2,76,0.00,,,0.00,VWS V14.00,2013-04-10 04:52:00,
2013-04-10 00:53:00,46.6,39.4,29.71,SSW,202,10.2,11.2,76,0.00,,,0.00,VWS V14.00,2013-04-10 04:53:00,
2013-04-10 00:54:00,46.6,39.4,29.71,SSW,202,5.5,11.2,76,0.00,,,0.00,VWS V14.00,2013-04-10 04:54:00,
2013-04-10 00:55:00,46.6,39.1,29.71,WSW,248,7.0,8.0,75,0.00,,,0.00,VWS V14.00,2013-04-10 04:55:00,
2013-04-10 00:56:00,46.6,39.4,29.71,SSE,158,0.0,3.3,76,0.00,,,0.00,VWS V14.00,2013-04-10 04:56:00,
2013-04-10 00:57:00,46.6,39.4,29.71,West,270,0.0,1.0,76,0.00,,,0.00,VWS V14.00,2013-04-10 04:57:00,
2013-04-10 00:58:00,46.6,39.4,29.71,West,270,0.0,1.0,76,0.00,,,0.00,VWS V14.00,2013-04-10 04:58:00,
2013-04-10 00:59:00,46.6,39.1,29.71,WNW,292,0.0,1.0,75,0.00,,,0.00,VWS V14.00,2013-04-10 04:59:00,
2013-04-10 01:00:00,46.6,39.1,29.74,WSW,248,2.0,6.1,75,0.00,,,0.00,VWS V14.00,2013-04-10 05:00:00,
2013-04-10 01:01:00,46.6,39.1,29.71,SSW,202,0.0,1.0,75,0.00,,,0.00,VWS V14.00,2013-04-10 05:01:00,
2013-04-10 01:02:00,46.6,39.1,29.71,WSW,248,7.0,8.0,75,0.00,,,0.00,VWS V14.00,2013-04-10 05:02:00,
2013-04-10 01:05:00,46.6,39.4,29.74,South,180,0.0,1.0,76,0.00,,,0.00,VWS V14.00,2013-04-10 05:05:00,
2013-04-10 01:06:00,46.6,39.1,29.74,WSW,248,2.0,6.1,75,0.00,,,0.00,VWS V14.00,2013-04-10 05:06:00,
2013-04-10 01:07:00,46.6,39.1,29.74,West,270,5.5,6.5,75,0.00,,,0.00,VWS V14.00,2013-04-10 05:07:00,
2013-04-10 01:10:00,46.6,39.4,29.74,SSW,202,5.9,9.6,76,0.00,,,0.00,VWS V14.00,2013-04-10 05:10:00,
2013-04-10 01:11:00,46.6,39.4,29.74,West,270,0.0,5.3,76,0.00,,,0.00,VWS V14.00,2013-04-10 05:11:00,
2013-04-10 01:12:00,46.6,39.4,29.74,South,180,0.0,1.0,76,0.00,,,0.00,VWS V14.00,2013-04-10 05:12:00,
2013-04-10 01:13:00,46.6,39.4,29.74,WSW,248,4.3,5.3,76,0.00,,,0.00,VWS V14.00,2013-04-10 05:13:00,
2013-04-10 01:14:00,46.6,39.4,29.74,NW,315,1.6,5.3,76,0.00,,,0.00,VWS V14.00,2013-04-10 05:14:00,
2013-04-10 01:15:00,46.6,39.4,29.74,West,270,0.0,1.0,76,0.00,,,0.00,VWS V14.00,2013-04-10 05:15:00,
2013-04-10 01:16:00,46.6,39.4,29.74,West,270,8.6,9.6,76,0.00,,,0.00,VWS V14.00,2013-04-10 05:16:00,
2013-04-10 01:17:00,46.6,39.4,29.74,SSW,202,5.9,9.6,76,0.00,,,0.00,VWS V14.00,2013-04-10 05:17:00,
2013-04-10 01:18:00,46.6,39.4,29.74,WNW,292,5.1,6.9,76,0.00,,,0.00,VWS V14.00,2013-04-10 05:18:00,
2013-04-10 01:19:00,46.6,39.4,29.74,West,270,2.7,6.1,76,0.00,,,0.00,VWS V14.00,2013-04-10 05:19:00,
2013-04-10 01:20:00,46.6,39.4,29.74,West,270,3.9,4.9,76,0.00,,,0.00,VWS V14.00,2013-04-10 05:20:00,
2013-04-10 01:21:00,46.6,39.4,29.74,West,270,0.0,6.1,76,0.00,,,0.00,VWS V14.00,2013-04-10 05:21:00,
2013-04-10 01:22:00,46.6,39.4,29.74,West,270,1.6,2.6,76,0.00,,,0.00,VWS V14.00,2013-04-10 05:22:00,
2013-04-10 01:23:00,46.6,39.4,29.74,WNW,292,0.0,2.6,76,0.00,,,0.00,VWS V14.00,2013-04-10 05:23:00,
2013-04-10 01:25:00,46.6,39.4,29.74,WNW,292,2.3,3.7,76,0.00,,,0.00,VWS V14.00,2013-04-10 05:25:00,
2013-04-10 01:26:00,46.6,39.4,29.74,WNW,292,3.5,4.9,76,0.00,,,0.00,VWS V14.00,2013-04-10 05:26:00,
2013-04-10 01:27:00,46.6,39.4,29.74,West,270,3.9,4.9,76,0.00,,,0.00,VWS V14.00,2013-04-10 05:27:00,
2013-04-10 01:28:00,46.6,39.4,29.74,WSW,248,2.7,4.9,76,0.00,,,0.00,VWS V14.00,2013-04-10 05:28:00,
2013-04-10 01:29:00,46.6,39.4,29.74,WSW,248,0.0,3.7,76,0.00,,,0.00,VWS V14.00,2013-04-10 05:29:00,
2013-04-10 01:30:00,46.8,39.3,29.74,SSW,202,0.0,1.0,75,0.00,,,0.00,VWS V14.00,2013-04-10 05:30:00,
2013-04-10 01:31:00,46.6,39.4,29.74,West,270,2.7,3.7,76,0.00,,,0.00,VWS V14.00,2013-04-10 05:31:00,
2013-04-10 01:32:00,46.6,39.4,29.74,WNW,292,2.3,3.7,76,0.00,,,0.00,VWS V14.00,2013-04-10 05:32:00,
2013-04-10 01:33:00,46.8,39.3,29.74,WSW,248,0.0,3.3,75,0.00,,,0.00,VWS V14.00,2013-04-10 05:33:00,
2013-04-10 01:34:00,46.8,39.3,29.74,SW,225,0.0,1.0,75,0.00,,,0.00,VWS V14.00,2013-04-10 05:34:00,
2013-04-10 01:35:00,46.8,39.3,29.74,SSW,202,4.7,9.6,75,0.00,,,0.00,VWS V14.00,2013-04-10 05:35:00,
2013-04-10 01:36:00,46.8,39.3,29.74,SW,225,0.0,1.0,75,0.00,,,0.00,VWS V14.00,2013-04-10 05:36:00,
2013-04-10 01:37:00,46.8,39.3,29.74,SW,225,0.0,1.0,75,0.00,,,0.00,VWS V14.00,2013-04-10 05:37:00,
2013-04-10 01:38:00,46.8,39.3,29.74,WSW,248,0.0,1.0,75,0.00,,,0.00,VWS V14.00,2013-04-10 05:38:00,
2013-04-10 01:39:00,46.8,39.3,29.74,WSW,248,0.0,1.0,75,0.00,,,0.00,VWS V14.00,2013-04-10 05:39:00,
2013-04-10 01:40:00,46.8,38.9,29.74,West,270,0.0,1.0,74,0.00,,,0.00,VWS V14.00,2013-04-10 05:40:00,
2013-04-10 01:41:00,46.8,39.3,29.74,SSW,202,4.7,9.6,75,0.00,,,0.00,VWS V14.00,2013-04-10 05:41:00,
2013-04-10 01:43:00,46.8,39.3,29.74,West,270,0.0,1.0,75,0.00,,,0.00,VWS V14.00,2013-04-10 05:43:00,
2013-04-10 01:44:00,46.8,38.9,29.74,West,270,0.0,1.0,74,0.00,,,0.00,VWS V14.00,2013-04-10 05:44:00,
2013-04-10 01:45:00,46.9,39.1,29.74,West,270,0.0,6.5,74,0.00,,,0.00,VWS V14.00,2013-04-10 05:45:00,
2013-04-10 01:46:00,46.8,38.9,29.74,SW,225,0.0,1.0,74,0.00,,,0.00,VWS V14.00,2013-04-10 05:46:00,
2013-04-10 01:47:00,46.8,38.9,29.74,SW,225,0.0,1.0,74,0.00,,,0.00,VWS V14.00,2013-04-10 05:47:00,
2013-04-10 01:49:00,46.9,39.1,29.74,SSW,202,2.0,5.3,74,0.00,,,0.00,VWS V14.00,2013-04-10 05:49:00,
2013-04-10 01:50:00,46.9,39.1,29.74,WSW,248,0.0,3.3,74,0.00,,,0.00,VWS V14.00,2013-04-10 05:50:00,
2013-04-10 01:52:00,46.9,39.1,29.74,WSW,248,2.3,3.3,74,0.00,,,0.00,VWS V14.00,2013-04-10 05:52:00,
2013-04-10 01:53:00,46.9,39.1,29.74,WSW,248,2.3,3.3,74,0.00,,,0.00,VWS V14.00,2013-04-10 05:53:00,
2013-04-10 01:55:00,46.9,38.8,29.74,West,270,0.0,1.0,73,0.00,,,0.00,VWS V14.00,2013-04-10 05:55:00,
2013-04-10 01:56:00,46.9,39.1,29.74,WSW,248,0.0,3.3,74,0.00,,,0.00,VWS V14.00,2013-04-10 05:56:00,
2013-04-10 01:57:00,46.9,39.1,29.74,SW,225,2.0,3.0,74,0.00,,,0.00,VWS V14.00,2013-04-10 05:57:00,
2013-04-10 01:58:00,46.9,38.8,29.74,WSW,248,0.0,3.0,73,0.00,,,0.00,VWS V14.00,2013-04-10 05:58:00,
2013-04-10 01:59:00,46.9,38.8,29.74,WSW,248,0.0,1.0,73,0.00,,,0.00,VWS V14.00,2013-04-10 05:59:00,
2013-04-10 02:00:00,46.9,38.4,29.74,West,270,0.0,1.0,72,0.00,,,0.00,VWS V14.00,2013-04-10 06:00:00,
2013-04-10 02:01:00,46.9,38.8,29.74,WSW,248,0.0,1.0,73,0.00,,,0.00,VWS V14.00,2013-04-10 06:01:00,
2013-04-10 02:02:00,46.9,38.8,29.74,WSW,248,0.0,1.0,73,0.00,,,0.00,VWS V14.00,2013-04-10 06:02:00,
2013-04-10 02:03:00,46.9,38.8,29.74,WSW,248,0.0,1.0,73,0.00,,,0.00,VWS V14.00,2013-04-10 06:03:00,
2013-04-10 02:04:00,46.9,38.8,29.74,WSW,248,0.0,1.0,73,0.00,,,0.00,VWS V14.00,2013-04-10 06:04:00,
2013-04-10 02:05:00,46.9,38.8,29.74,SW,225,0.0,1.0,73,0.00,,,0.00,VWS V14.00,2013-04-10 06:05:00,
2013-04-10 02:07:00,46.9,38.4,29.74,West,270,0.0,1.0,72,0.00,,,0.00,VWS V14.00,2013-04-10 06:07:00,
2013-04-10 02:09:00,46.9,38.4,29.74,WSW,248,1.6,2.6,72,0.00,,,0.00,VWS V14.00,2013-04-10 06:09:00,
2013-04-10 02:10:00,47.1,38.6,29.74,South,180,0.0,1.0,72,0.00,,,0.00,VWS V14.00,2013-04-10 06:10:00,
2013-04-10 02:11:00,46.9,38.8,29.74,SW,225,0.0,1.0,73,0.00,,,0.00,VWS V14.00,2013-04-10 06:11:00,
2013-04-10 02:13:00,46.9,38.8,29.74,WNW,292,0.0,1.0,73,0.00,,,0.00,VWS V14.00,2013-04-10 06:13:00,
2013-04-10 02:14:00,47.1,38.6,29.74,WSW,248,0.0,1.0,72,0.00,,,0.00,VWS V14.00,2013-04-10 06:14:00,
2013-04-10 02:15:00,47.1,38.6,29.74,West,270,0.0,1.0,72,0.00,,,0.00,VWS V14.00,2013-04-10 06:15:00,
2013-04-10 02:16:00,47.1,38.6,29.74,West,270,0.0,1.0,72,0.00,,,0.00,VWS V14.00,2013-04-10 06:16:00,
2013-04-10 02:17:00,47.1,38.6,29.74,West,270,0.0,1.0,72,0.00,,,0.00,VWS V14.00,2013-04-10 06:17:00,
2013-04-10 02:19:00,47.1,38.6,29.74,West,270,0.0,1.0,72,0.00,,,0.00,VWS V14.00,2013-04-10 06:19:00,
2013-04-10 02:20:00,47.1,38.6,29.74,WNW,292,0.0,1.0,72,0.00,,,0.00,VWS V14.00,2013-04-10 06:20:00,
2013-04-10 02:21:00,47.1,38.6,29.74,West,270,0.0,1.0,72,0.00,,,0.00,VWS V14.00,2013-04-10 06:21:00,
2013-04-10 02:22:00,47.1,38.6,29.74,West,270,0.0,1.0,72,0.00,,,0.00,VWS V14.00,2013-04-10 06:22:00,
2013-04-10 02:23:00,47.1,38.6,29.74,West,270,0.0,1.0,72,0.00,,,0.00,VWS V14.00,2013-04-10 06:23:00,
2013-04-10 02:24:00,47.1,38.6,29.74,WNW,292,0.0,1.0,72,0.00,,,0.00,VWS V14.00,2013-04-10 06:24:00,
2013-04-10 02:25:00,47.1,38.2,29.74,WNW,292,0.0,1.0,71,0.00,,,0.00,VWS V14.00,2013-04-10 06:25:00,
2013-04-10 02:26:00,47.1,38.6,29.74,WNW,292,0.0,1.0,72,0.00,,,0.00,VWS V14.00,2013-04-10 06:26:00,
2013-04-10 02:27:00,47.1,38.6,29.74,WNW,292,0.0,1.0,72,0.00,,,0.00,VWS V14.00,2013-04-10 06:27:00,
2013-04-10 02:28:00,47.1,38.6,29.74,WNW,292,0.0,1.0,72,0.00,,,0.00,VWS V14.00,2013-04-10 06:28:00,
2013-04-10 02:29:00,47.1,38.6,29.74,WNW,292,0.0,1.0,72,0.00,,,0.00,VWS V14.00,2013-04-10 06:29:00,
2013-04-10 02:30:00,47.1,38.2,29.74,WNW,292,0.0,1.0,71,0.00,,,0.00,VWS V14.00,2013-04-10 06:30:00,
2013-04-10 02:31:00,47.1,38.2,29.74,WNW,292,0.0,1.0,71,0.00,,,0.00,VWS V14.00,2013-04-10 06:31:00,
2013-04-10 02:32:00,47.1,38.2,29.74,WNW,292,0.0,1.0,71,0.00,,,0.00,VWS V14.00,2013-04-10 06:32:00,
2013-04-10 02:33:00,47.1,38.2,29.74,WNW,292,0.0,1.0,71,0.00,,,0.00,VWS V14.00,2013-04-10 06:33:00,
2013-04-10 02:34:00,47.1,38.2,29.74,WNW,292,0.0,1.0,71,0.00,,,0.00,VWS V14.00,2013-04-10 06:34:00,
2013-04-10 02:35:00,47.1,38.2,29.74,West,270,0.0,1.0,71,0.00,,,0.00,VWS V14.00,2013-04-10 06:35:00,
2013-04-10 02:37:00,47.1,38.2,29.74,WSW,248,0.0,1.0,71,0.00,,,0.00,VWS V14.00,2013-04-10 06:37:00,
2013-04-10 02:38:00,47.1,38.2,29.74,WSW,248,0.0,1.0,71,0.00,,,0.00,VWS V14.00,2013-04-10 06:38:00,
2013-04-10 02:39:00,47.1,38.2,29.74,WSW,248,0.0,1.0,71,0.00,,,0.00,VWS V14.00,2013-04-10 06:39:00,
2013-04-10 02:40:00,47.3,38.4,29.74,West,270,0.0,1.0,71,0.00,,,0.00,VWS V14.00,2013-04-10 06:40:00,
2013-04-10 02:41:00,47.1,38.2,29.74,West,270,0.0,1.0,71,0.00,,,0.00,VWS V14.00,2013-04-10 06:41:00,
2013-04-10 02:42:00,47.1,38.2,29.74,West,270,0.0,1.0,71,0.00,,,0.00,VWS V14.00,2013-04-10 06:42:00,
2013-04-10 02:43:00,47.1,38.2,29.74,West,270,0.0,1.0,71,0.00,,,0.00,VWS V14.00,2013-04-10 06:43:00,
2013-04-10 02:44:00,47.1,38.2,29.74,West,270,0.0,1.0,71,0.00,,,0.00,VWS V14.00,2013-04-10 06:44:00,
2013-04-10 02:45:00,47.3,38.4,29.74,NW,315,0.0,1.0,71,0.00,,,0.00,VWS V14.00,2013-04-10 06:45:00,
2013-04-10 02:47:00,47.3,38.4,29.74,West,270,0.0,1.0,71,0.00,,,0.00,VWS V14.00,2013-04-10 06:47:00,
2013-04-10 02:48:00,47.3,38.4,29.74,West,270,0.0,1.0,71,0.00,,,0.00,VWS V14.00,2013-04-10 06:48:00,
2013-04-10 02:50:00,47.3,38.4,29.74,NW,315,0.0,1.0,71,0.00,,,0.00,VWS V14.00,2013-04-10 06:50:00,
2013-04-10 02:52:00,47.3,38.4,29.74,NW,315,0.0,1.0,71,0.00,,,0.00,VWS V14.00,2013-04-10 06:52:00,
2013-04-10 02:53:00,47.3,38.4,29.74,NW,315,0.0,1.0,71,0.00,,,0.00,VWS V14.00,2013-04-10 06:53:00,
2013-04-10 02:54:00,47.3,38.4,29.74,NW,315,0.0,1.0,71,0.00,,,0.00,VWS V14.00,2013-04-10 06:54:00,
2013-04-10 02:55:00,47.3,38.4,29.74,NW,315,0.0,1.0,71,0.00,,,0.00,VWS V14.00,2013-04-10 06:55:00,
2013-04-10 02:56:00,47.3,38.4,29.74,NW,315,0.0,1.0,71,0.00,,,0.00,VWS V14.00,2013-04-10 06:56:00,
2013-04-10 02:57:00,47.3,38.4,29.74,NW,315,0.0,1.0,71,0.00,,,0.00,VWS V14.00,2013-04-10 06:57:00,
2013-04-10 02:58:00,47.3,38.4,29.74,NW,315,0.0,1.0,71,0.00,,,0.00,VWS V14.00,2013-04-10 06:58:00,
2013-04-10 02:59:00,47.3,38.4,29.74,NW,315,0.0,1.0,71,0.00,,,0.00,VWS V14.00,2013-04-10 06:59:00,
2013-04-10 03:00:00,47.3,38.4,29.74,NW,315,0.0,1.0,71,0.00,,,0.00,VWS V14.00,2013-04-10 07:00:00,
2013-04-10 03:01:00,47.3,38.4,29.74,NW,315,0.0,1.0,71,0.00,,,0.00,VWS V14.00,2013-04-10 07:01:00,
2013-04-10 03:02:00,47.3,38.4,29.74,NW,315,0.0,1.0,71,0.00,,,0.00,VWS V14.00,2013-04-10 07:02:00,
2013-04-10 03:03:00,47.3,38.4,29.74,NW,315,0.0,1.0,71,0.00,,,0.00,VWS V14.00,2013-04-10 07:03:00,
2013-04-10 03:04:00,47.3,38.4,29.74,NW,315,0.0,1.0,71,0.00,,,0.00,VWS V14.00,2013-04-10 07:04:00,
2013-04-10 03:05:00,47.3,38.4,29.76,NW,315,1.6,2.6,71,0.00,,,0.00,VWS V14.00,2013-04-10 07:05:00,
2013-04-10 03:06:00,47.3,38.4,29.74,NW,315,0.0,1.0,71,0.00,,,0.00,VWS V14.00,2013-04-10 07:06:00,
2013-04-10 03:07:00,47.3,38.4,29.74,NW,315,0.0,1.0,71,0.00,,,0.00,VWS V14.00,2013-04-10 07:07:00,
2013-04-10 03:08:00,47.3,38.4,29.74,NW,315,0.0,1.0,71,0.00,,,0.00,VWS V14.00,2013-04-10 07:08:00,
2013-04-10 03:09:00,47.3,38.4,29.74,NW,315,0.0,1.0,71,0.00,,,0.00,VWS V14.00,2013-04-10 07:09:00,
2013-04-10 03:10:00,47.3,38.7,29.76,NNW,338,0.0,1.0,72,0.00,,,0.00,VWS V14.00,2013-04-10 07:10:00,
2013-04-10 03:11:00,47.3,38.4,29.76,NW,315,1.6,2.6,71,0.00,,,0.00,VWS V14.00,2013-04-10 07:11:00,
2013-04-10 03:12:00,47.3,38.4,29.76,NNE,22,0.0,2.6,71,0.00,,,0.00,VWS V14.00,2013-04-10 07:12:00,
2013-04-10 03:14:00,47.3,38.7,29.76,North,0,0.0,1.0,72,0.00,,,0.00,VWS V14.00,2013-04-10 07:14:00,
2013-04-10 03:15:00,47.3,38.7,29.76,NNW,338,0.0,1.0,72,0.00,,,0.00,VWS V14.00,2013-04-10 07:15:00,
2013-04-10 03:16:00,47.3,38.7,29.76,NNW,338,0.0,1.0,72,0.00,,,0.00,VWS V14.00,2013-04-10 07:16:00,
2013-04-10 03:17:00,47.3,38.7,29.76,North,0,0.0,1.0,72,0.00,,,0.00,VWS V14.00,2013-04-10 07:17:00,
2013-04-10 03:18:00,47.3,38.7,29.76,NNW,338,0.0,1.0,72,0.00,,,0.00,VWS V14.00,2013-04-10 07:18:00,
2013-04-10 03:19:00,47.3,38.7,29.76,North,0,0.0,1.0,72,0.00,,,0.00,VWS V14.00,2013-04-10 07:19:00,
2013-04-10 03:20:00,47.3,39.1,29.76,WNW,292,0.0,1.0,73,0.00,,,0.00,VWS V14.00,2013-04-10 07:20:00,
2013-04-10 03:21:00,47.3,38.7,29.76,NNW,338,0.0,1.0,72,0.00,,,0.00,VWS V14.00,2013-04-10 07:21:00,
2013-04-10 03:22:00,47.3,38.7,29.76,NNW,338,0.0,1.0,72,0.00,,,0.00,VWS V14.00,2013-04-10 07:22:00,
2013-04-10 03:23:00,47.3,38.7,29.76,West,270,0.0,1.0,72,0.00,,,0.00,VWS V14.00,2013-04-10 07:23:00,
2013-04-10 03:24:00,47.3,39.1,29.76,West,270,0.0,1.0,73,0.00,,,0.00,VWS V14.00,2013-04-10 07:24:00,
2013-04-10 03:25:00,47.3,39.1,29.76,West,270,0.0,1.0,73,0.00,,,0.00,VWS V14.00,2013-04-10 07:25:00,
2013-04-10 03:26:00,47.3,39.1,29.76,WNW,292,0.0,1.0,73,0.00,,,0.00,VWS V14.00,2013-04-10 07:26:00,
2013-04-10 03:27:00,47.3,39.1,29.76,WNW,292,0.0,1.0,73,0.00,,,0.00,VWS V14.00,2013-04-10 07:27:00,
2013-04-10 03:28:00,47.3,39.1,29.76,NNW,338,0.0,1.0,73,0.00,,,0.00,VWS V14.00,2013-04-10 07:28:00,
2013-04-10 03:29:00,47.3,39.1,29.76,NNW,338,0.0,1.0,73,0.00,,,0.00,VWS V14.00,2013-04-10 07:29:00,